sensor_id;sensor_type;location;lat;lon;timestamp;pressure;altitude;pressure_sealevel;temperature;humidity
3654;BME280;70277;54.302;10.064;2023-09-30T00:02:26;101787.94;;;14.57;76.04
3654;BME280;70277;54.302;10.064;2023-09-30T00:04:53;101785.69;;;14.71;75.39
3654;BME280;70277;54.302;10.064;2023-09-30T00:07:20;101790.16;;;14.60;75.77
3654;BME280;70277;54.302;10.064;2023-09-30T00:09:46;101793.97;;;14.76;75.30
3654;BME280;70277;54.302;10.064;2023-09-30T00:12:13;101789.44;;;14.65;75.64
3654;BME280;70277;54.302;10.064;2023-09-30T00:14:39;101799.16;;;14.61;75.48
3654;BME280;70277;54.302;10.064;2023-09-30T00:17:06;101796.94;;;14.57;75.62
3654;BME280;70277;54.302;10.064;2023-09-30T00:19:32;101800.72;;;14.73;75.03
3654;BME280;70277;54.302;10.064;2023-09-30T00:21:59;101804.50;;;14.72;75.13
3654;BME280;70277;54.302;10.064;2023-09-30T00:24:26;101811.38;;;14.75;74.92
3654;BME280;70277;54.302;10.064;2023-09-30T00:26:53;101811.25;;;14.87;74.47
3654;BME280;70277;54.302;10.064;2023-09-30T00:29:20;101816.72;;;14.87;74.81
3654;BME280;70277;54.302;10.064;2023-09-30T00:31:46;101815.16;;;14.74;74.30
3654;BME280;70277;54.302;10.064;2023-09-30T00:34:14;101811.78;;;14.67;74.46
3654;BME280;70277;54.302;10.064;2023-09-30T00:36:40;101815.28;;;14.62;74.35
3654;BME280;70277;54.302;10.064;2023-09-30T00:39:07;101806.34;;;14.67;74.17
3654;BME280;70277;54.302;10.064;2023-09-30T00:41:34;101821.41;;;14.52;74.57
3654;BME280;70277;54.302;10.064;2023-09-30T00:44:01;101816.66;;;14.48;74.35
3654;BME280;70277;54.302;10.064;2023-09-30T00:46:37;101815.09;;;14.35;75.23
3654;BME280;70277;54.302;10.064;2023-09-30T00:49:04;101820.28;;;14.37;74.78
3654;BME280;70277;54.302;10.064;2023-09-30T00:51:31;101819.41;;;14.14;75.15
3654;BME280;70277;54.302;10.064;2023-09-30T00:53:59;101823.41;;;14.28;74.61
3654;BME280;70277;54.302;10.064;2023-09-30T00:56:28;101822.03;;;14.26;74.92
3654;BME280;70277;54.302;10.064;2023-09-30T00:58:56;101830.28;;;14.14;75.19
3654;BME280;70277;54.302;10.064;2023-09-30T01:01:22;101820.38;;;14.08;74.99
3654;BME280;70277;54.302;10.064;2023-09-30T01:03:50;101824.16;;;14.07;74.56
3654;BME280;70277;54.302;10.064;2023-09-30T01:06:17;101824.25;;;14.12;74.90
3654;BME280;70277;54.302;10.064;2023-09-30T01:08:44;101827.03;;;14.00;74.83
3654;BME280;70277;54.302;10.064;2023-09-30T01:11:10;101830.25;;;13.97;76.26
3654;BME280;70277;54.302;10.064;2023-09-30T01:13:37;101832.97;;;13.97;76.51
3654;BME280;70277;54.302;10.064;2023-09-30T01:16:07;101828.25;;;13.93;76.47
3654;BME280;70277;54.302;10.064;2023-09-30T01:18:39;101818.56;;;13.68;77.08
3654;BME280;70277;54.302;10.064;2023-09-30T01:21:06;101825.84;;;13.79;77.35
3654;BME280;70277;54.302;10.064;2023-09-30T01:23:34;101825.63;;;13.69;77.64
3654;BME280;70277;54.302;10.064;2023-09-30T01:26:07;101827.25;;;13.82;76.58
3654;BME280;70277;54.302;10.064;2023-09-30T01:28:35;101825.47;;;14.04;76.00
3654;BME280;70277;54.302;10.064;2023-09-30T01:31:02;101834.28;;;13.95;75.50
3654;BME280;70277;54.302;10.064;2023-09-30T01:33:28;101825.41;;;14.16;75.16
3654;BME280;70277;54.302;10.064;2023-09-30T01:35:55;101825.22;;;14.06;74.98
3654;BME280;70277;54.302;10.064;2023-09-30T01:38:21;101820.63;;;13.78;75.17
3654;BME280;70277;54.302;10.064;2023-09-30T01:40:48;101816.31;;;13.65;74.75
3654;BME280;70277;54.302;10.064;2023-09-30T01:43:15;101817.59;;;13.34;77.47
3654;BME280;70277;54.302;10.064;2023-09-30T01:45:42;101824.72;;;13.23;78.41
3654;BME280;70277;54.302;10.064;2023-09-30T01:48:09;101825.75;;;13.34;77.83
3654;BME280;70277;54.302;10.064;2023-09-30T01:50:39;101823.03;;;13.22;79.21
3654;BME280;70277;54.302;10.064;2023-09-30T01:53:06;101824.03;;;13.56;78.20
3654;BME280;70277;54.302;10.064;2023-09-30T01:55:33;101830.53;;;13.67;76.76
3654;BME280;70277;54.302;10.064;2023-09-30T01:58:00;101832.47;;;13.55;75.75
3654;BME280;70277;54.302;10.064;2023-09-30T02:00:27;101825.75;;;13.34;76.01
3654;BME280;70277;54.302;10.064;2023-09-30T02:02:55;101835.94;;;13.38;76.04
3654;BME280;70277;54.302;10.064;2023-09-30T02:05:23;101845.63;;;13.46;76.09
3654;BME280;70277;54.302;10.064;2023-09-30T02:07:50;101843.47;;;13.48;75.94
3654;BME280;70277;54.302;10.064;2023-09-30T02:10:17;101836.81;;;13.56;76.46
3654;BME280;70277;54.302;10.064;2023-09-30T02:12:47;101832.50;;;13.72;76.46
3654;BME280;70277;54.302;10.064;2023-09-30T02:15:14;101840.69;;;13.60;77.70
3654;BME280;70277;54.302;10.064;2023-09-30T02:17:40;101840.03;;;13.53;77.75
3654;BME280;70277;54.302;10.064;2023-09-30T02:20:12;101840.59;;;13.83;77.44
3654;BME280;70277;54.302;10.064;2023-09-30T02:22:42;101840.94;;;13.87;77.16
3654;BME280;70277;54.302;10.064;2023-09-30T02:25:10;101844.72;;;13.86;77.19
3654;BME280;70277;54.302;10.064;2023-09-30T02:27:41;101848.47;;;13.97;77.20
3654;BME280;70277;54.302;10.064;2023-09-30T02:30:11;101851.38;;;14.07;76.84
3654;BME280;70277;54.302;10.064;2023-09-30T02:32:42;101846.25;;;14.10;77.04
3654;BME280;70277;54.302;10.064;2023-09-30T02:35:09;101850.72;;;14.17;76.84
3654;BME280;70277;54.302;10.064;2023-09-30T02:37:40;101839.59;;;14.18;76.19
3654;BME280;70277;54.302;10.064;2023-09-30T02:40:07;101848.31;;;14.03;76.80
3654;BME280;70277;54.302;10.064;2023-09-30T02:42:40;101841.75;;;13.71;77.78
3654;BME280;70277;54.302;10.064;2023-09-30T02:45:08;101838.91;;;13.65;78.29
3654;BME280;70277;54.302;10.064;2023-09-30T02:47:35;101841.25;;;13.74;78.37
3654;BME280;70277;54.302;10.064;2023-09-30T02:50:05;101853.91;;;13.97;77.46
3654;BME280;70277;54.302;10.064;2023-09-30T02:52:32;101858.44;;;13.91;77.14
3654;BME280;70277;54.302;10.064;2023-09-30T02:54:58;101847.13;;;13.82;77.76
3654;BME280;70277;54.302;10.064;2023-09-30T02:57:25;101845.03;;;13.73;77.49
3654;BME280;70277;54.302;10.064;2023-09-30T02:59:52;101848.84;;;13.60;77.73
3654;BME280;70277;54.302;10.064;2023-09-30T03:02:18;101844.19;;;13.72;76.66
3654;BME280;70277;54.302;10.064;2023-09-30T03:04:45;101843.63;;;13.18;79.39
3654;BME280;70277;54.302;10.064;2023-09-30T03:07:13;101851.66;;;13.13;80.25
3654;BME280;70277;54.302;10.064;2023-09-30T03:09:40;101853.91;;;13.28;80.25
3654;BME280;70277;54.302;10.064;2023-09-30T03:12:07;101844.25;;;13.08;80.25
3654;BME280;70277;54.302;10.064;2023-09-30T03:14:35;101850.72;;;13.19;80.71
3654;BME280;70277;54.302;10.064;2023-09-30T03:17:01;101863.50;;;13.30;79.87
3654;BME280;70277;54.302;10.064;2023-09-30T03:19:29;101855.63;;;13.46;79.61
3654;BME280;70277;54.302;10.064;2023-09-30T03:21:56;101865.72;;;13.33;79.99
3654;BME280;70277;54.302;10.064;2023-09-30T03:24:23;101860.16;;;13.52;79.42
3654;BME280;70277;54.302;10.064;2023-09-30T03:26:50;101859.34;;;13.16;80.83
3654;BME280;70277;54.302;10.064;2023-09-30T03:29:16;101864.34;;;12.95;81.02
3654;BME280;70277;54.302;10.064;2023-09-30T03:31:43;101851.66;;;13.13;80.93
3654;BME280;70277;54.302;10.064;2023-09-30T03:34:09;101861.25;;;13.27;80.42
3654;BME280;70277;54.302;10.064;2023-09-30T03:36:36;101857.66;;;13.50;79.59
3654;BME280;70277;54.302;10.064;2023-09-30T03:39:02;101866.59;;;13.62;79.02
3654;BME280;70277;54.302;10.064;2023-09-30T03:41:33;101864.66;;;13.46;79.44
3654;BME280;70277;54.302;10.064;2023-09-30T03:44:01;101861.50;;;13.66;79.08
3654;BME280;70277;54.302;10.064;2023-09-30T03:46:28;101859.91;;;13.41;79.60
3654;BME280;70277;54.302;10.064;2023-09-30T03:48:54;101864.53;;;13.41;80.09
3654;BME280;70277;54.302;10.064;2023-09-30T03:51:22;101869.59;;;13.49;79.48
3654;BME280;70277;54.302;10.064;2023-09-30T03:53:51;101862.91;;;13.28;80.11
3654;BME280;70277;54.302;10.064;2023-09-30T03:56:18;101868.69;;;13.20;80.29
3654;BME280;70277;54.302;10.064;2023-09-30T03:58:45;101871.97;;;13.22;80.01
3654;BME280;70277;54.302;10.064;2023-09-30T04:01:11;101870.47;;;13.38;79.56
3654;BME280;70277;54.302;10.064;2023-09-30T04:03:38;101880.22;;;13.51;79.11
3654;BME280;70277;54.302;10.064;2023-09-30T04:06:10;101880.63;;;13.07;80.50
3654;BME280;70277;54.302;10.064;2023-09-30T04:08:36;101878.38;;;12.92;80.55
3654;BME280;70277;54.302;10.064;2023-09-30T04:11:03;101880.06;;;12.93;80.92
3654;BME280;70277;54.302;10.064;2023-09-30T04:13:30;101873.91;;;12.86;80.85
3654;BME280;70277;54.302;10.064;2023-09-30T04:15:56;101884.53;;;13.23;79.64
3654;BME280;70277;54.302;10.064;2023-09-30T04:18:24;101869.06;;;13.00;80.40
3654;BME280;70277;54.302;10.064;2023-09-30T04:20:53;101883.81;;;13.16;80.42
3654;BME280;70277;54.302;10.064;2023-09-30T04:23:19;101886.31;;;13.29;79.53
3654;BME280;70277;54.302;10.064;2023-09-30T04:25:46;101894.94;;;12.91;81.06
3654;BME280;70277;54.302;10.064;2023-09-30T04:28:13;101891.63;;;13.01;80.60
3654;BME280;70277;54.302;10.064;2023-09-30T04:30:40;101889.38;;;12.86;80.75
3654;BME280;70277;54.302;10.064;2023-09-30T04:33:07;101888.56;;;12.85;80.97
3654;BME280;70277;54.302;10.064;2023-09-30T04:35:34;101896.47;;;13.10;79.46
3654;BME280;70277;54.302;10.064;2023-09-30T04:38:02;101888.69;;;13.26;79.41
3654;BME280;70277;54.302;10.064;2023-09-30T04:40:30;101891.41;;;13.02;79.99
3654;BME280;70277;54.302;10.064;2023-09-30T04:42:59;101895.88;;;13.08;80.39
3654;BME280;70277;54.302;10.064;2023-09-30T04:45:26;101902.59;;;13.41;79.16
3654;BME280;70277;54.302;10.064;2023-09-30T04:47:54;101904.94;;;13.61;78.43
3654;BME280;70277;54.302;10.064;2023-09-30T04:50:22;101901.38;;;13.49;78.59
3654;BME280;70277;54.302;10.064;2023-09-30T04:52:50;101906.50;;;13.21;79.27
3654;BME280;70277;54.302;10.064;2023-09-30T04:55:17;101910.28;;;13.09;80.43
3654;BME280;70277;54.302;10.064;2023-09-30T04:57:46;101907.09;;;13.00;80.59
3654;BME280;70277;54.302;10.064;2023-09-30T05:00:15;101908.66;;;12.96;80.62
3654;BME280;70277;54.302;10.064;2023-09-30T05:02:44;101910.44;;;13.26;79.90
3654;BME280;70277;54.302;10.064;2023-09-30T05:05:11;101904.03;;;13.08;80.79
3654;BME280;70277;54.302;10.064;2023-09-30T05:07:38;101914.44;;;13.00;80.56
3654;BME280;70277;54.302;10.064;2023-09-30T05:10:05;101911.47;;;13.13;80.92
3654;BME280;70277;54.302;10.064;2023-09-30T05:12:33;101912.16;;;13.55;79.26
3654;BME280;70277;54.302;10.064;2023-09-30T05:15:00;101910.75;;;13.41;79.09
3654;BME280;70277;54.302;10.064;2023-09-30T05:17:28;101922.81;;;13.45;79.89
3654;BME280;70277;54.302;10.064;2023-09-30T05:19:59;101916.97;;;13.65;79.06
3654;BME280;70277;54.302;10.064;2023-09-30T05:22:25;101926.94;;;13.24;80.64
3654;BME280;70277;54.302;10.064;2023-09-30T05:24:54;101927.41;;;12.86;81.96
3654;BME280;70277;54.302;10.064;2023-09-30T05:27:22;101926.13;;;12.88;82.06
3654;BME280;70277;54.302;10.064;2023-09-30T05:29:49;101925.78;;;13.08;81.75
3654;BME280;70277;54.302;10.064;2023-09-30T05:32:15;101932.25;;;13.19;81.37
3654;BME280;70277;54.302;10.064;2023-09-30T05:34:42;101934.63;;;13.15;81.99
3654;BME280;70277;54.302;10.064;2023-09-30T05:37:10;101927.44;;;13.33;81.39
3654;BME280;70277;54.302;10.064;2023-09-30T05:39:38;101924.97;;;13.31;81.09
3654;BME280;70277;54.302;10.064;2023-09-30T05:42:05;101937.22;;;13.46;80.48
3654;BME280;70277;54.302;10.064;2023-09-30T05:44:33;101937.22;;;13.22;81.11
3654;BME280;70277;54.302;10.064;2023-09-30T05:46:59;101933.69;;;13.21;81.86
3654;BME280;70277;54.302;10.064;2023-09-30T05:49:26;101950.00;;;13.33;81.70
3654;BME280;70277;54.302;10.064;2023-09-30T05:51:52;101935.09;;;13.24;82.01
3654;BME280;70277;54.302;10.064;2023-09-30T05:54:19;101950.97;;;13.27;81.50
3654;BME280;70277;54.302;10.064;2023-09-30T05:56:46;101951.75;;;13.51;81.59
3654;BME280;70277;54.302;10.064;2023-09-30T05:59:13;101952.25;;;13.36;81.58
3654;BME280;70277;54.302;10.064;2023-09-30T06:01:40;101960.84;;;13.57;81.99
3654;BME280;70277;54.302;10.064;2023-09-30T06:04:07;101961.28;;;13.25;82.96
3654;BME280;70277;54.302;10.064;2023-09-30T06:06:33;101961.81;;;13.51;81.70
3654;BME280;70277;54.302;10.064;2023-09-30T06:09:00;101975.06;;;13.59;82.45
3654;BME280;70277;54.302;10.064;2023-09-30T06:11:27;101975.25;;;13.69;82.22
3654;BME280;70277;54.302;10.064;2023-09-30T06:13:57;101985.09;;;13.70;82.17
3654;BME280;70277;54.302;10.064;2023-09-30T06:16:27;101968.66;;;13.65;82.28
3654;BME280;70277;54.302;10.064;2023-09-30T06:18:54;101983.69;;;13.68;82.38
3654;BME280;70277;54.302;10.064;2023-09-30T06:21:21;101975.69;;;13.89;81.80
3654;BME280;70277;54.302;10.064;2023-09-30T06:23:48;101979.47;;;14.00;81.79
3654;BME280;70277;54.302;10.064;2023-09-30T06:26:20;101976.63;;;13.95;82.54
3654;BME280;70277;54.302;10.064;2023-09-30T06:28:47;101986.22;;;13.98;82.38
3654;BME280;70277;54.302;10.064;2023-09-30T06:31:14;101985.00;;;14.34;81.38
3654;BME280;70277;54.302;10.064;2023-09-30T06:33:41;101979.59;;;14.22;81.42
3654;BME280;70277;54.302;10.064;2023-09-30T06:36:12;101980.69;;;14.50;81.24
3654;BME280;70277;54.302;10.064;2023-09-30T06:38:43;101987.59;;;14.41;81.03
3654;BME280;70277;54.302;10.064;2023-09-30T06:41:16;101979.84;;;14.49;80.82
3654;BME280;70277;54.302;10.064;2023-09-30T06:43:44;101992.59;;;14.32;81.07
3654;BME280;70277;54.302;10.064;2023-09-30T06:46:10;101992.72;;;14.25;81.96
3654;BME280;70277;54.302;10.064;2023-09-30T06:48:37;102001.44;;;14.39;81.41
3654;BME280;70277;54.302;10.064;2023-09-30T06:51:06;102000.56;;;14.22;82.15
3654;BME280;70277;54.302;10.064;2023-09-30T06:53:33;102003.25;;;14.62;81.12
3654;BME280;70277;54.302;10.064;2023-09-30T06:55:59;101997.59;;;14.52;81.19
3654;BME280;70277;54.302;10.064;2023-09-30T06:58:26;101988.63;;;14.51;81.29
3654;BME280;70277;54.302;10.064;2023-09-30T07:00:52;101996.00;;;14.68;81.58
3654;BME280;70277;54.302;10.064;2023-09-30T07:03:22;102001.19;;;14.69;81.09
3654;BME280;70277;54.302;10.064;2023-09-30T07:05:52;101996.25;;;14.66;81.29
3654;BME280;70277;54.302;10.064;2023-09-30T07:08:20;102002.59;;;14.72;81.42
3654;BME280;70277;54.302;10.064;2023-09-30T07:10:49;102020.94;;;14.93;80.48
3654;BME280;70277;54.302;10.064;2023-09-30T07:13:16;102011.13;;;15.26;79.59
3654;BME280;70277;54.302;10.064;2023-09-30T07:15:44;102019.78;;;15.23;79.61
3654;BME280;70277;54.302;10.064;2023-09-30T07:18:10;102018.78;;;15.46;79.12
3654;BME280;70277;54.302;10.064;2023-09-30T07:20:38;102026.88;;;15.58;78.67
3654;BME280;70277;54.302;10.064;2023-09-30T07:23:05;102027.56;;;15.87;78.04
3654;BME280;70277;54.302;10.064;2023-09-30T07:25:44;102028.09;;;15.67;78.66
3654;BME280;70277;54.302;10.064;2023-09-30T07:28:11;102029.09;;;16.00;78.35
3654;BME280;70277;54.302;10.064;2023-09-30T07:30:38;102031.41;;;15.86;78.78
3654;BME280;70277;54.302;10.064;2023-09-30T07:33:06;102025.47;;;15.94;78.00
3654;BME280;70277;54.302;10.064;2023-09-30T07:35:33;102027.75;;;16.02;78.26
3654;BME280;70277;54.302;10.064;2023-09-30T07:38:00;102028.75;;;16.40;76.80
3654;BME280;70277;54.302;10.064;2023-09-30T07:40:27;102051.81;;;16.05;78.06
3654;BME280;70277;54.302;10.064;2023-09-30T07:42:54;102050.94;;;16.22;78.16
3654;BME280;70277;54.302;10.064;2023-09-30T07:45:21;102051.88;;;16.32;78.48
3654;BME280;70277;54.302;10.064;2023-09-30T07:47:48;102049.22;;;16.65;77.72
3654;BME280;70277;54.302;10.064;2023-09-30T07:50:15;102041.38;;;16.73;77.31
3654;BME280;70277;54.302;10.064;2023-09-30T07:52:42;102052.03;;;16.70;77.10
3654;BME280;70277;54.302;10.064;2023-09-30T07:55:09;102049.34;;;16.75;77.28
3654;BME280;70277;54.302;10.064;2023-09-30T07:57:36;102053.56;;;16.33;78.05
3654;BME280;70277;54.302;10.064;2023-09-30T08:00:03;102052.41;;;16.78;77.50
3654;BME280;70277;54.302;10.064;2023-09-30T08:02:35;102060.91;;;16.82;77.11
3654;BME280;70277;54.302;10.064;2023-09-30T08:05:03;102066.56;;;17.02;76.56
3654;BME280;70277;54.302;10.064;2023-09-30T08:07:32;102063.78;;;16.97;77.19
3654;BME280;70277;54.302;10.064;2023-09-30T08:09:59;102065.91;;;16.90;76.99
3654;BME280;70277;54.302;10.064;2023-09-30T08:12:26;102067.66;;;17.01;76.31
3654;BME280;70277;54.302;10.064;2023-09-30T08:14:52;102057.00;;;17.37;75.78
3654;BME280;70277;54.302;10.064;2023-09-30T08:17:19;102066.63;;;17.45;75.98
3654;BME280;70277;54.302;10.064;2023-09-30T08:19:45;102066.56;;;17.77;75.72
3654;BME280;70277;54.302;10.064;2023-09-30T08:22:14;102054.22;;;17.32;75.23
3654;BME280;70277;54.302;10.064;2023-09-30T08:24:41;102060.84;;;17.36;75.80
3654;BME280;70277;54.302;10.064;2023-09-30T08:27:07;102078.16;;;17.84;74.91
3654;BME280;70277;54.302;10.064;2023-09-30T08:29:34;102073.06;;;17.61;74.61
3654;BME280;70277;54.302;10.064;2023-09-30T08:32:03;102082.50;;;17.80;74.62
3654;BME280;70277;54.302;10.064;2023-09-30T08:34:30;102088.84;;;17.86;74.16
3654;BME280;70277;54.302;10.064;2023-09-30T08:36:57;102086.50;;;18.10;73.38
3654;BME280;70277;54.302;10.064;2023-09-30T08:39:23;102083.28;;;18.23;73.98
3654;BME280;70277;54.302;10.064;2023-09-30T08:41:50;102090.28;;;18.04;72.84
3654;BME280;70277;54.302;10.064;2023-09-30T08:44:17;102091.66;;;17.96;73.26
3654;BME280;70277;54.302;10.064;2023-09-30T08:46:43;102081.09;;;18.25;72.57
3654;BME280;70277;54.302;10.064;2023-09-30T08:49:11;102083.63;;;18.47;71.63
3654;BME280;70277;54.302;10.064;2023-09-30T08:51:38;102087.69;;;18.29;72.32
3654;BME280;70277;54.302;10.064;2023-09-30T08:54:05;102076.25;;;18.53;70.91
3654;BME280;70277;54.302;10.064;2023-09-30T08:56:32;102077.06;;;18.43;71.39
3654;BME280;70277;54.302;10.064;2023-09-30T08:59:01;102078.53;;;18.76;72.13
3654;BME280;70277;54.302;10.064;2023-09-30T09:01:29;102078.75;;;18.70;71.59
3654;BME280;70277;54.302;10.064;2023-09-30T09:03:56;102068.22;;;18.31;71.03
3654;BME280;70277;54.302;10.064;2023-09-30T09:06:24;102077.44;;;18.82;69.96
3654;BME280;70277;54.302;10.064;2023-09-30T09:08:51;102068.66;;;18.80;70.61
3654;BME280;70277;54.302;10.064;2023-09-30T09:11:18;102081.84;;;18.78;70.98
3654;BME280;70277;54.302;10.064;2023-09-30T09:13:50;102081.31;;;19.32;70.32
3654;BME280;70277;54.302;10.064;2023-09-30T09:16:19;102087.34;;;19.50;69.13
3654;BME280;70277;54.302;10.064;2023-09-30T09:18:46;102079.91;;;19.50;69.23
3654;BME280;70277;54.302;10.064;2023-09-30T09:21:19;102079.63;;;19.52;68.60
3654;BME280;70277;54.302;10.064;2023-09-30T09:23:49;102081.81;;;19.55;68.63
3654;BME280;70277;54.302;10.064;2023-09-30T09:26:31;102090.25;;;20.05;67.42
3654;BME280;70277;54.302;10.064;2023-09-30T09:29:03;102090.53;;;20.03;66.88
3654;BME280;70277;54.302;10.064;2023-09-30T09:31:32;102088.06;;;20.66;66.71
3654;BME280;70277;54.302;10.064;2023-09-30T09:34:13;102088.81;;;20.22;67.09
3654;BME280;70277;54.302;10.064;2023-09-30T09:36:42;102083.78;;;20.40;67.37
3654;BME280;70277;54.302;10.064;2023-09-30T09:39:10;102090.47;;;20.23;67.32
3654;BME280;70277;54.302;10.064;2023-09-30T09:41:53;102089.78;;;21.36;64.83
3654;BME280;70277;54.302;10.064;2023-09-30T09:44:21;102086.00;;;21.27;63.68
3654;BME280;70277;54.302;10.064;2023-09-30T09:46:48;102088.41;;;20.50;65.51
3654;BME280;70277;54.302;10.064;2023-09-30T09:49:17;102090.03;;;19.91;67.72
3654;BME280;70277;54.302;10.064;2023-09-30T09:51:45;102084.88;;;19.38;71.01
3654;BME280;70277;54.302;10.064;2023-09-30T09:54:12;102104.75;;;18.57;72.55
3654;BME280;70277;54.302;10.064;2023-09-30T09:56:39;102096.13;;;19.21;71.53
3654;BME280;70277;54.302;10.064;2023-09-30T09:59:08;102098.88;;;19.42;70.89
3654;BME280;70277;54.302;10.064;2023-09-30T10:01:38;102095.00;;;19.07;71.91
3654;BME280;70277;54.302;10.064;2023-09-30T10:04:06;102108.94;;;18.75;71.98
3654;BME280;70277;54.302;10.064;2023-09-30T10:06:35;102101.31;;;18.82;72.03
3654;BME280;70277;54.302;10.064;2023-09-30T10:09:10;102101.03;;;19.81;70.45
3654;BME280;70277;54.302;10.064;2023-09-30T10:11:40;102108.59;;;20.25;66.67
3654;BME280;70277;54.302;10.064;2023-09-30T10:14:08;102111.84;;;20.37;66.53
3654;BME280;70277;54.302;10.064;2023-09-30T10:19:15;102120.47;;;20.80;65.06
3654;BME280;70277;54.302;10.064;2023-09-30T10:24:58;102104.97;;;21.28;60.97
3654;BME280;70277;54.302;10.064;2023-09-30T10:35:21;102109.44;;;21.83;57.54
3654;BME280;70277;54.302;10.064;2023-09-30T10:37:48;102123.88;;;22.65;57.14
3654;BME280;70277;54.302;10.064;2023-09-30T10:40:28;102119.97;;;22.90;54.75
3654;BME280;70277;54.302;10.064;2023-09-30T10:42:55;102117.56;;;22.65;55.06
3654;BME280;70277;54.302;10.064;2023-09-30T10:53:51;102118.63;;;23.39;54.08
3654;BME280;70277;54.302;10.064;2023-09-30T10:56:21;102124.31;;;22.54;54.12
3654;BME280;70277;54.302;10.064;2023-09-30T10:58:52;102136.38;;;22.15;55.78
3654;BME280;70277;54.302;10.064;2023-09-30T11:01:20;102137.72;;;21.93;56.73
3654;BME280;70277;54.302;10.064;2023-09-30T11:03:49;102140.69;;;20.99;58.14
3654;BME280;70277;54.302;10.064;2023-09-30T11:06:20;102140.53;;;21.25;58.05
3654;BME280;70277;54.302;10.064;2023-09-30T11:08:53;102142.63;;;20.44;57.94
3654;BME280;70277;54.302;10.064;2023-09-30T11:11:41;102136.44;;;20.78;58.22
3654;BME280;70277;54.302;10.064;2023-09-30T11:14:26;102138.22;;;21.42;55.42
3654;BME280;70277;54.302;10.064;2023-09-30T11:16:58;102132.16;;;22.46;53.91
3654;BME280;70277;54.302;10.064;2023-09-30T11:19:32;102129.94;;;22.67;53.14
3654;BME280;70277;54.302;10.064;2023-09-30T11:22:00;102133.81;;;22.85;52.03
3654;BME280;70277;54.302;10.064;2023-09-30T11:24:26;102119.72;;;23.57;52.20
3654;BME280;70277;54.302;10.064;2023-09-30T11:26:55;102134.41;;;23.39;51.70
3654;BME280;70277;54.302;10.064;2023-09-30T11:29:22;102131.47;;;23.49;50.77
3654;BME280;70277;54.302;10.064;2023-09-30T11:31:49;102128.38;;;23.70;50.90
3654;BME280;70277;54.302;10.064;2023-09-30T11:34:18;102129.78;;;22.40;52.90
3654;BME280;70277;54.302;10.064;2023-09-30T11:36:52;102122.56;;;23.52;51.92
3654;BME280;70277;54.302;10.064;2023-09-30T11:39:24;102137.94;;;24.33;50.32
3654;BME280;70277;54.302;10.064;2023-09-30T11:41:51;102126.13;;;24.55;49.64
3654;BME280;70277;54.302;10.064;2023-09-30T11:44:18;102131.06;;;24.30;48.84
3654;BME280;70277;54.302;10.064;2023-09-30T11:46:49;102131.75;;;23.48;52.55
3654;BME280;70277;54.302;10.064;2023-09-30T11:49:39;102139.78;;;23.30;52.70
3654;BME280;70277;54.302;10.064;2023-09-30T11:52:10;102141.47;;;22.51;55.42
3654;BME280;70277;54.302;10.064;2023-09-30T11:54:39;102134.84;;;21.50;57.46
3654;BME280;70277;54.302;10.064;2023-09-30T11:57:14;102152.59;;;20.89;58.24
3654;BME280;70277;54.302;10.064;2023-09-30T11:59:45;102148.84;;;19.85;59.26
3654;BME280;70277;54.302;10.064;2023-09-30T12:02:13;102143.09;;;19.66;59.36
3654;BME280;70277;54.302;10.064;2023-09-30T12:04:46;102153.19;;;20.01;60.32
3654;BME280;70277;54.302;10.064;2023-09-30T12:07:16;102130.16;;;19.76;60.39
3654;BME280;70277;54.302;10.064;2023-09-30T12:09:42;102135.13;;;19.69;61.26
3654;BME280;70277;54.302;10.064;2023-09-30T12:12:09;102142.75;;;20.03;60.47
3654;BME280;70277;54.302;10.064;2023-09-30T12:14:37;102148.78;;;20.10;59.89
3654;BME280;70277;54.302;10.064;2023-09-30T12:17:04;102155.31;;;20.30;59.20
3654;BME280;70277;54.302;10.064;2023-09-30T12:19:30;102139.22;;;19.77;60.18
3654;BME280;70277;54.302;10.064;2023-09-30T12:21:57;102138.41;;;19.71;60.15
3654;BME280;70277;54.302;10.064;2023-09-30T12:24:24;102140.59;;;19.69;60.29
3654;BME280;70277;54.302;10.064;2023-09-30T12:26:51;102131.81;;;19.77;60.96
3654;BME280;70277;54.302;10.064;2023-09-30T12:29:19;102125.19;;;19.63;60.53
3654;BME280;70277;54.302;10.064;2023-09-30T12:31:50;102128.97;;;20.13;59.91
3654;BME280;70277;54.302;10.064;2023-09-30T12:34:20;102130.09;;;20.07;59.46
3654;BME280;70277;54.302;10.064;2023-09-30T12:36:46;102130.84;;;20.88;57.85
3654;BME280;70277;54.302;10.064;2023-09-30T12:39:14;102114.78;;;21.45;56.07
3654;BME280;70277;54.302;10.064;2023-09-30T12:41:43;102123.88;;;21.98;54.71
3654;BME280;70277;54.302;10.064;2023-09-30T12:44:12;102132.25;;;21.25;56.53
3654;BME280;70277;54.302;10.064;2023-09-30T12:46:39;102132.97;;;20.57;58.01
3654;BME280;70277;54.302;10.064;2023-09-30T12:49:07;102128.84;;;20.54;58.79
3654;BME280;70277;54.302;10.064;2023-09-30T12:51:34;102137.75;;;20.20;59.59
3654;BME280;70277;54.302;10.064;2023-09-30T12:54:01;102123.97;;;20.26;59.22
3654;BME280;70277;54.302;10.064;2023-09-30T12:56:28;102135.94;;;19.85;60.58
3654;BME280;70277;54.302;10.064;2023-09-30T12:58:58;102122.91;;;20.27;60.06
3654;BME280;70277;54.302;10.064;2023-09-30T13:01:25;102123.56;;;19.83;60.11
3654;BME280;70277;54.302;10.064;2023-09-30T13:03:53;102113.59;;;20.17;58.02
3654;BME280;70277;54.302;10.064;2023-09-30T13:06:19;102108.41;;;20.71;56.99
3654;BME280;70277;54.302;10.064;2023-09-30T13:08:46;102123.34;;;20.99;56.36
3654;BME280;70277;54.302;10.064;2023-09-30T13:11:14;102105.03;;;21.81;54.05
3654;BME280;70277;54.302;10.064;2023-09-30T13:13:40;102112.22;;;21.53;54.42
3654;BME280;70277;54.302;10.064;2023-09-30T13:16:10;102116.63;;;22.32;53.60
3654;BME280;70277;54.302;10.064;2023-09-30T13:18:38;102111.66;;;23.28;51.46